Terminal Aerodrome Forecast
Issued by NWS Mt. Holly, NJ

Home | Current Version | Previous Version | Text Only | Print | Product List | Glossary On
Versions: 1 2 3 4 5 6 7 8 9 10 11 12 13
000
FTUS41 KPHI 261726
TAFRDG
TAF
KRDG 261726Z 2618/2718 09004KT P6SM SCT045
     FM270000 VRB03KT P6SM SCT250
     FM270800 VRB03KT 4SM BR SCT250
     FM271400 03004KT P6SM SCT035=

USA.gov is the U.S. government's official web portal to all federal, state and local government web resources and services.